Time;durP1;ratioP1;P1;durP2;ratioP2;P2;SDS_P1;SDS_P2;PMS_P1;PMS_P2;Temp;Humidity;BMP_temperature;BMP_pressure;BME280_temperature;BME280_humidity;BME280_pressure;Samples;Min_cycle;Max_cycle;Signal;HPM_P1;HPM_P2
2021/08/19 00:01:25;;;;;;;2.83;2.63;;;15.90;99.90;;;;;;5035597;28;20476;-77
2021/08/19 00:03:50;;;;;;;2.67;2.47;;;15.70;99.90;;;;;;5048376;28;20179;-76
2021/08/19 00:06:16;;;;;;;2.50;2.30;;;15.50;99.90;;;;;;5029246;28;20213;-76
2021/08/19 00:08:42;;;;;;;2.87;2.60;;;15.50;99.90;;;;;;5041359;28;20433;-76
2021/08/19 00:11:10;;;;;;;2.63;2.43;;;15.60;99.90;;;;;;5067596;28;20197;-76
2021/08/19 00:13:36;;;;;;;3.53;2.60;;;15.70;99.90;;;;;;5066991;28;20508;-76
2021/08/19 00:16:02;;;;;;;4.27;2.80;;;15.50;99.90;;;;;;5061668;28;20488;-76
2021/08/19 00:18:28;;;;;;;2.90;2.70;;;15.70;99.90;;;;;;5065958;28;20795;-76
2021/08/19 00:20:54;;;;;;;2.10;2.00;;;15.70;99.90;;;;;;5063926;28;20464;-76
2021/08/19 00:23:19;;;;;;;2.67;2.47;;;15.90;99.90;;;;;;5049119;28;20197;-77
2021/08/19 00:25:45;;;;;;;2.73;2.53;;;15.60;99.90;;;;;;5050046;28;20430;-76
2021/08/19 00:28:11;;;;;;;2.40;2.20;;;16.00;99.90;;;;;;5049288;28;20710;-76
2021/08/19 00:30:37;;;;;;;2.83;2.40;;;16.10;99.90;;;;;;5051265;28;20900;-76
2021/08/19 00:33:03;;;;;;;2.53;2.33;;;15.80;99.90;;;;;;5048149;28;20293;-76
2021/08/19 00:35:28;;;;;;;2.80;2.50;;;15.80;99.90;;;;;;5044672;28;21296;-76
2021/08/19 00:37:54;;;;;;;3.83;2.80;;;15.70;99.90;;;;;;5044741;28;20236;-76
2021/08/19 00:40:20;;;;;;;2.90;2.70;;;15.90;99.90;;;;;;5057630;28;20288;-76
2021/08/19 00:42:46;;;;;;;3.30;1.97;;;15.70;99.90;;;;;;5065483;28;20186;-76
2021/08/19 00:45:11;;;;;;;2.77;2.57;;;16.00;99.90;;;;;;5054874;28;20785;-76
2021/08/19 00:47:41;;;;;;;2.47;2.27;;;15.70;99.90;;;;;;5048139;28;20186;-76
2021/08/19 00:50:08;;;;;;;3.73;2.80;;;15.90;99.90;;;;;;5047330;28;20186;-74
2021/08/19 00:52:35;;;;;;;2.80;2.60;;;16.00;99.90;;;;;;5049922;28;20425;-76
2021/08/19 00:55:02;;;;;;;2.50;2.30;;;15.60;99.90;;;;;;5048372;28;20429;-76
2021/08/19 00:57:27;;;;;;;2.60;2.40;;;15.90;99.90;;;;;;5044465;28;20417;-76
2021/08/19 00:59:53;;;;;;;2.60;2.20;;;15.80;99.90;;;;;;5048116;28;20479;-76
2021/08/19 01:02:22;;;;;;;2.23;2.03;;;15.90;99.90;;;;;;5047772;28;20213;-76
2021/08/19 01:04:49;;;;;;;2.40;2.20;;;16.10;99.90;;;;;;5047697;28;20493;-75
2021/08/19 01:07:15;;;;;;;2.40;2.20;;;15.90;99.90;;;;;;5044332;28;20524;-75
2021/08/19 01:09:42;;;;;;;2.30;2.20;;;15.80;99.90;;;;;;5052004;28;20523;-75
2021/08/19 01:12:10;;;;;;;3.80;3.50;;;15.80;99.90;;;;;;5054932;28;20888;-75
2021/08/19 01:14:36;;;;;;;4.23;3.97;;;15.70;99.90;;;;;;5045814;28;20450;-75
2021/08/19 01:17:22;;;;;;;3.70;3.40;;;15.80;99.90;;;;;;5049132;28;20775;-75
2021/08/19 01:19:51;;;;;;;3.20;3.00;;;16.00;99.90;;;;;;5048831;28;20214;-75
2021/08/19 01:22:18;;;;;;;3.00;2.80;;;15.90;99.90;;;;;;5065968;28;20478;-75
2021/08/19 01:24:44;;;;;;;2.70;2.50;;;16.00;99.90;;;;;;5068623;28;20435;-75
2021/08/19 01:27:17;;;;;;;2.20;2.10;;;16.00;99.90;;;;;;5063198;28;20471;-75
2021/08/19 01:29:46;;;;;;;2.50;2.30;;;15.90;99.90;;;;;;5063435;28;20496;-75
2021/08/19 01:32:12;;;;;;;2.70;2.50;;;15.90;99.90;;;;;;5060287;28;20463;-74
2021/08/19 01:34:39;;;;;;;2.43;2.23;;;15.60;99.90;;;;;;5066728;28;20469;-75
2021/08/19 01:37:06;;;;;;;3.00;2.80;;;15.80;99.90;;;;;;5064970;28;20428;-74
2021/08/19 01:39:32;;;;;;;2.27;2.10;;;15.80;99.90;;;;;;5066589;28;20550;-74
2021/08/19 01:41:57;;;;;;;2.40;2.23;;;16.00;99.90;;;;;;5064005;28;20583;-75
2021/08/19 01:44:23;;;;;;;2.37;2.17;;;15.90;99.90;;;;;;5060820;28;20198;-74
2021/08/19 01:47:03;;;;;;;2.60;2.50;;;15.90;99.90;;;;;;5046701;28;20182;-75
2021/08/19 01:49:33;;;;;;;2.73;2.53;;;16.00;99.90;;;;;;5062991;28;20196;-75
2021/08/19 01:51:59;;;;;;;3.17;2.90;;;15.90;99.90;;;;;;5064959;28;20518;-75
2021/08/19 01:54:26;;;;;;;2.80;2.60;;;15.80;99.90;;;;;;5064837;28;20412;-75
2021/08/19 01:56:52;;;;;;;2.57;2.37;;;15.90;99.90;;;;;;5051164;28;20445;-75
2021/08/19 01:59:18;;;;;;;3.27;2.97;;;15.60;99.90;;;;;;5058619;28;20512;-75
2021/08/19 02:01:43;;;;;;;3.50;2.70;;;16.00;99.90;;;;;;5067885;28;20494;-74
2021/08/19 02:04:09;;;;;;;2.20;2.00;;;15.90;99.90;;;;;;5066401;28;20567;-75
2021/08/19 02:06:35;;;;;;;2.20;2.03;;;15.80;99.90;;;;;;5051147;28;20605;-75
2021/08/19 02:09:00;;;;;;;2.63;2.43;;;16.00;99.90;;;;;;5041151;28;20190;-74
2021/08/19 02:11:26;;;;;;;2.17;2.00;;;16.10;99.90;;;;;;5056026;28;20194;-75
2021/08/19 02:13:51;;;;;;;2.40;2.20;;;15.70;99.90;;;;;;5068236;28;20177;-74
2021/08/19 02:16:17;;;;;;;2.47;2.27;;;15.80;99.90;;;;;;5049160;28;20548;-74
2021/08/19 02:18:43;;;;;;;2.13;2.03;;;15.90;99.90;;;;;;5046526;28;20665;-74
2021/08/19 02:21:09;;;;;;;2.43;2.33;;;16.00;99.90;;;;;;5040811;28;20648;-75
2021/08/19 02:23:34;;;;;;;2.40;2.20;;;16.00;99.90;;;;;;5046335;28;20269;-74
2021/08/19 02:26:00;;;;;;;2.03;1.83;;;15.80;99.90;;;;;;5046225;28;20845;-74
2021/08/19 02:28:26;;;;;;;2.10;2.00;;;15.80;99.90;;;;;;5043600;28;20280;-74
2021/08/19 02:30:51;;;;;;;2.37;2.17;;;16.00;99.90;;;;;;5047056;28;20524;-74
2021/08/19 02:33:17;;;;;;;2.30;2.10;;;16.00;99.90;;;;;;5045900;28;20210;-74
2021/08/19 02:35:42;;;;;;;1.90;1.70;;;16.00;99.90;;;;;;5062290;28;20296;-74
2021/08/19 02:38:08;;;;;;;2.30;2.10;;;15.80;99.90;;;;;;5064153;28;20189;-74
2021/08/19 02:40:36;;;;;;;2.20;2.10;;;15.90;99.90;;;;;;5066268;28;20301;-74
2021/08/19 02:43:03;;;;;;;2.03;1.93;;;16.10;99.90;;;;;;5057414;28;20189;-74
2021/08/19 02:45:29;;;;;;;2.20;2.03;;;15.80;99.90;;;;;;5030579;28;20449;-74
2021/08/19 02:47:55;;;;;;;2.10;1.70;;;15.80;99.90;;;;;;5027570;28;20425;-73
2021/08/19 02:50:21;;;;;;;1.90;1.80;;;15.80;99.90;;;;;;5062358;28;20423;-73
2021/08/19 02:52:47;;;;;;;3.10;2.37;;;15.80;99.90;;;;;;5065843;28;20197;-74
2021/08/19 02:55:13;;;;;;;2.33;2.13;;;16.00;99.90;;;;;;5062214;28;20636;-77
2021/08/19 02:57:38;;;;;;;1.87;1.77;;;15.90;99.90;;;;;;5042550;28;20428;-74
2021/08/19 03:00:05;;;;;;;1.90;1.80;;;15.80;99.90;;;;;;5043386;28;20841;-74
2021/08/19 03:02:31;;;;;;;1.97;1.87;;;15.90;99.90;;;;;;5045812;28;20190;-74
2021/08/19 03:04:57;;;;;;;2.13;1.93;;;16.10;99.90;;;;;;5047675;28;20413;-74
2021/08/19 03:07:23;;;;;;;2.20;2.07;;;15.80;99.90;;;;;;5044302;28;20189;-74
2021/08/19 03:09:49;;;;;;;2.20;2.10;;;15.80;99.90;;;;;;5053472;28;20201;-75
2021/08/19 03:12:15;;;;;;;2.40;2.20;;;15.80;99.90;;;;;;5055035;28;20815;-75
2021/08/19 03:14:40;;;;;;;1.90;1.80;;;15.80;99.90;;;;;;5045651;28;20562;-74
2021/08/19 03:17:07;;;;;;;2.67;2.47;;;15.90;99.90;;;;;;5042313;28;20190;-75
2021/08/19 03:19:36;;;;;;;2.30;2.20;;;15.80;99.90;;;;;;5047136;28;20221;-74
2021/08/19 03:22:03;;;;;;;2.90;2.33;;;15.70;99.90;;;;;;5031040;28;20453;-74
2021/08/19 03:24:29;;;;;;;3.30;3.10;;;15.80;99.90;;;;;;5067686;28;20776;-74
2021/08/19 03:26:56;;;;;;;4.93;4.50;;;15.90;99.90;;;;;;5069306;28;20428;-74
2021/08/19 03:29:22;;;;;;;4.67;4.37;;;15.70;99.90;;;;;;5065289;28;20618;-74
2021/08/19 03:31:48;;;;;;;2.93;2.73;;;15.90;99.90;;;;;;5070447;28;20428;-74
2021/08/19 03:34:14;;;;;;;2.17;2.07;;;15.90;99.90;;;;;;5070545;28;20509;-74
2021/08/19 03:36:40;;;;;;;2.70;2.50;;;15.70;99.90;;;;;;5067457;28;20432;-74
2021/08/19 03:39:05;;;;;;;2.30;2.20;;;15.90;99.90;;;;;;5050889;28;20218;-74
2021/08/19 03:41:34;;;;;;;2.10;2.00;;;15.80;99.90;;;;;;5048474;28;20209;-74
2021/08/19 03:44:01;;;;;;;3.57;3.37;;;15.80;99.90;;;;;;5046090;28;20291;-74
2021/08/19 03:46:26;;;;;;;3.20;3.00;;;15.90;99.90;;;;;;5027609;28;20425;-74
2021/08/19 03:48:52;;;;;;;4.43;4.13;;;15.80;99.90;;;;;;5033754;28;20435;-74
2021/08/19 03:51:17;;;;;;;3.20;3.00;;;15.80;99.90;;;;;;5069163;28;20178;-74
2021/08/19 03:53:43;;;;;;;3.60;3.30;;;15.90;99.90;;;;;;5065577;28;20267;-74
2021/08/19 03:56:09;;;;;;;3.00;2.80;;;15.90;99.90;;;;;;5065188;28;20228;-75
2021/08/19 03:58:36;;;;;;;3.03;2.60;;;15.80;99.90;;;;;;5070735;28;20276;-75
2021/08/19 04:01:02;;;;;;;2.20;2.00;;;16.10;99.90;;;;;;5069671;28;20463;-75
2021/08/19 04:03:28;;;;;;;2.13;1.93;;;15.90;99.90;;;;;;5064994;28;20440;-75
2021/08/19 04:05:53;;;;;;;2.23;2.13;;;15.80;99.90;;;;;;5064897;28;20428;-75
2021/08/19 04:08:19;;;;;;;1.93;1.83;;;15.80;99.90;;;;;;5063738;28;20190;-76
2021/08/19 04:10:45;;;;;;;2.23;2.13;;;16.20;99.90;;;;;;5066461;28;20182;-75
2021/08/19 04:13:10;;;;;;;4.80;2.60;;;15.80;99.90;;;;;;5054829;28;20194;-75
2021/08/19 04:15:36;;;;;;;2.03;1.93;;;15.90;99.90;;;;;;5047041;28;20575;-76
2021/08/19 04:18:01;;;;;;;2.07;1.90;;;15.70;99.90;;;;;;5046933;28;20708;-75
2021/08/19 04:20:27;;;;;;;2.10;2.00;;;15.90;99.90;;;;;;5046961;28;20541;-76
2021/08/19 04:22:53;;;;;;;1.97;1.87;;;15.80;99.90;;;;;;5048150;28;20175;-76
2021/08/19 04:25:18;;;;;;;2.60;2.40;;;15.80;99.90;;;;;;5054906;28;20519;-76
2021/08/19 04:27:44;;;;;;;1.73;1.63;;;15.80;99.90;;;;;;5054980;28;20222;-76
2021/08/19 04:30:10;;;;;;;2.50;2.30;;;15.70;99.90;;;;;;5052836;28;20187;-76
2021/08/19 04:32:36;;;;;;;2.13;2.03;;;15.80;99.90;;;;;;5051684;28;20230;-75
2021/08/19 04:35:02;;;;;;;2.80;2.10;;;15.80;99.90;;;;;;5046482;28;20798;-76
2021/08/19 04:37:28;;;;;;;2.40;2.20;;;15.80;99.90;;;;;;5039870;28;20432;-75
2021/08/19 04:39:53;;;;;;;2.47;2.27;;;15.80;99.90;;;;;;5048176;28;20783;-75
2021/08/19 04:42:19;;;;;;;3.00;2.10;;;15.80;99.90;;;;;;5045614;28;20183;-75
2021/08/19 04:44:44;;;;;;;2.10;2.00;;;16.00;99.90;;;;;;5047720;28;20188;-75
2021/08/19 04:47:10;;;;;;;2.03;1.93;;;15.80;99.90;;;;;;5045449;28;20210;-75
2021/08/19 04:49:35;;;;;;;2.50;2.00;;;15.80;99.90;;;;;;5044248;28;20186;-75
2021/08/19 04:52:01;;;;;;;2.43;2.23;;;16.10;99.90;;;;;;5050670;28;20189;-75
2021/08/19 04:54:26;;;;;;;2.17;2.00;;;15.70;99.90;;;;;;5051630;28;20218;-75
2021/08/19 04:56:52;;;;;;;2.20;1.97;;;16.00;99.90;;;;;;5050670;28;20708;-75
2021/08/19 04:59:17;;;;;;;1.80;1.70;;;15.70;99.90;;;;;;5050842;28;20240;-75
2021/08/19 05:01:43;;;;;;;2.37;2.27;;;15.80;99.90;;;;;;5047292;28;20187;-75
2021/08/19 05:04:09;;;;;;;2.20;2.00;;;15.80;99.90;;;;;;5053440;28;20181;-75
2021/08/19 05:06:35;;;;;;;2.10;1.90;;;16.10;99.90;;;;;;5046489;28;20606;-76
2021/08/19 05:09:04;;;;;;;1.90;1.80;;;16.00;99.90;;;;;;5046687;28;20179;-75
2021/08/19 05:11:30;;;;;;;2.10;2.00;;;15.90;99.90;;;;;;5042074;28;20433;-76
2021/08/19 05:13:58;;;;;;;2.10;1.70;;;15.80;99.90;;;;;;5053974;28;20806;-75
2021/08/19 05:16:27;;;;;;;2.20;2.00;;;15.90;99.90;;;;;;5057859;28;20429;-76
2021/08/19 05:18:53;;;;;;;3.47;2.10;;;15.90;99.90;;;;;;5051289;28;20432;-75
2021/08/19 05:21:19;;;;;;;1.80;1.40;;;15.90;99.90;;;;;;5048929;28;20483;-75
2021/08/19 05:23:45;;;;;;;2.43;2.23;;;16.30;99.90;;;;;;5048673;28;20214;-76
2021/08/19 05:26:10;;;;;;;1.97;1.87;;;15.90;99.90;;;;;;5052365;28;20528;-75
2021/08/19 05:28:36;;;;;;;2.03;1.80;;;16.10;99.90;;;;;;5049267;28;20233;-76
2021/08/19 05:31:01;;;;;;;1.87;1.77;;;16.00;99.90;;;;;;5045402;28;20662;-76
2021/08/19 05:33:27;;;;;;;2.57;2.37;;;16.00;99.90;;;;;;5044981;28;20284;-75
2021/08/19 05:35:53;;;;;;;2.27;2.13;;;16.30;99.90;;;;;;5046395;28;20210;-75
2021/08/19 05:38:18;;;;;;;2.20;2.00;;;16.10;99.90;;;;;;5041018;28;20600;-73
2021/08/19 05:40:44;;;;;;;3.03;2.00;;;16.40;99.90;;;;;;5045351;28;20710;-74
2021/08/19 05:43:09;;;;;;;3.20;1.90;;;16.30;99.90;;;;;;5047390;28;20641;-74
2021/08/19 05:45:35;;;;;;;2.53;2.33;;;16.50;99.90;;;;;;5036582;28;20194;-72
2021/08/19 05:48:01;;;;;;;3.40;1.97;;;16.40;99.90;;;;;;5044459;28;20705;-73
2021/08/19 05:50:31;;;;;;;1.83;1.70;;;16.60;99.90;;;;;;5049641;28;20507;-73
2021/08/19 05:52:56;;;;;;;2.20;2.10;;;16.60;99.90;;;;;;5045389;28;20439;-73
2021/08/19 05:55:22;;;;;;;2.40;2.20;;;16.70;99.90;;;;;;5046130;28;20428;-74
2021/08/19 05:57:47;;;;;;;2.17;2.00;;;16.70;99.90;;;;;;5044318;28;20233;-74
2021/08/19 06:00:14;;;;;;;2.60;2.40;;;16.90;99.90;;;;;;5044570;28;20210;-74
2021/08/19 06:02:39;;;;;;;2.47;2.20;;;16.70;99.90;;;;;;5047120;28;20189;-74
2021/08/19 06:05:07;;;;;;;2.60;2.33;;;16.80;99.90;;;;;;5045866;28;20425;-74
2021/08/19 06:07:32;;;;;;;3.03;2.33;;;17.00;99.90;;;;;;5045090;28;20708;-74
2021/08/19 06:09:58;;;;;;;2.37;2.17;;;16.80;99.90;;;;;;5044446;28;20437;-74
2021/08/19 06:12:23;;;;;;;2.73;2.50;;;17.10;99.90;;;;;;5050665;28;20207;-74
2021/08/19 06:14:51;;;;;;;2.20;2.00;;;17.10;99.90;;;;;;5045368;28;20732;-74
2021/08/19 06:17:17;;;;;;;2.10;2.00;;;17.30;99.90;;;;;;5047604;28;20190;-74
2021/08/19 06:19:43;;;;;;;2.30;2.20;;;17.60;99.90;;;;;;5048476;28;20472;-74
2021/08/19 06:22:09;;;;;;;1.93;1.80;;;17.50;99.90;;;;;;5042230;28;20438;-74
2021/08/19 06:24:34;;;;;;;1.70;1.60;;;17.70;99.90;;;;;;5038068;28;20518;-74
2021/08/19 06:27:00;;;;;;;2.50;2.17;;;17.60;99.90;;;;;;5045897;28;20435;-74
2021/08/19 06:29:25;;;;;;;2.30;2.03;;;18.00;99.90;;;;;;5042936;28;20187;-76
2021/08/19 06:31:51;;;;;;;1.60;1.50;;;18.20;99.90;;;;;;5045293;28;20186;-74
2021/08/19 06:34:16;;;;;;;2.27;2.00;;;18.20;99.90;;;;;;5048621;28;20305;-76
2021/08/19 06:36:42;;;;;;;1.90;1.80;;;18.00;99.90;;;;;;5045691;28;20572;-77
2021/08/19 06:39:07;;;;;;;2.40;1.90;;;18.10;99.90;;;;;;5043564;28;20226;-73
2021/08/19 06:41:33;;;;;;;2.20;2.00;;;18.10;99.90;;;;;;5042950;28;20625;-76
2021/08/19 06:43:58;;;;;;;1.87;1.77;;;18.60;99.90;;;;;;5046320;28;20195;-76
2021/08/19 06:46:24;;;;;;;2.07;1.47;;;18.60;99.90;;;;;;5041500;28;20270;-77
2021/08/19 06:48:49;;;;;;;2.47;2.10;;;18.50;99.90;;;;;;5039508;28;20203;-77
2021/08/19 06:51:15;;;;;;;2.00;1.90;;;18.90;99.90;;;;;;5038125;28;20226;-73
2021/08/19 06:53:40;;;;;;;1.90;1.80;;;19.00;99.90;;;;;;5042077;28;20194;-74
2021/08/19 06:56:06;;;;;;;1.73;1.63;;;19.10;99.90;;;;;;5050864;28;20283;-76
2021/08/19 06:58:31;;;;;;;1.80;1.70;;;19.20;99.90;;;;;;5047729;28;20822;-76
2021/08/19 07:00:57;;;;;;;1.87;1.77;;;19.50;99.90;;;;;;5049356;28;20223;-76
2021/08/19 07:03:23;;;;;;;2.10;2.00;;;19.30;99.90;;;;;;5059789;28;20176;-75
2021/08/19 07:05:49;;;;;;;1.80;1.70;;;19.40;99.90;;;;;;5051478;28;20212;-76
2021/08/19 07:08:17;;;;;;;1.53;1.47;;;19.70;99.90;;;;;;5049876;28;20212;-75
2021/08/19 07:10:43;;;;;;;2.23;1.73;;;19.80;99.90;;;;;;5048642;28;20199;-76
2021/08/19 07:13:09;;;;;;;1.77;1.67;;;20.10;99.90;;;;;;5048134;28;20431;-76
2021/08/19 07:15:35;;;;;;;1.90;1.80;;;20.10;99.90;;;;;;5047151;28;20195;-75
2021/08/19 07:18:00;;;;;;;1.60;1.50;;;20.10;99.90;;;;;;5048650;28;20938;-76
2021/08/19 07:20:26;;;;;;;1.50;1.40;;;20.20;99.90;;;;;;5048430;28;20211;-76
2021/08/19 07:22:52;;;;;;;1.77;1.67;;;20.60;99.90;;;;;;5048483;28;20219;-75
2021/08/19 07:25:18;;;;;;;2.57;1.60;;;20.40;99.90;;;;;;5046563;28;20427;-75
2021/08/19 07:27:44;;;;;;;1.83;1.73;;;21.00;98.40;;;;;;5046634;28;20225;-76
2021/08/19 07:30:11;;;;;;;1.63;1.53;;;21.10;97.20;;;;;;5054956;28;20265;-76
2021/08/19 07:32:36;;;;;;;1.87;1.77;;;21.20;96.60;;;;;;5050008;28;20886;-75
2021/08/19 07:35:03;;;;;;;1.80;1.53;;;21.50;95.50;;;;;;5046612;28;20456;-76
2021/08/19 07:37:28;;;;;;;3.07;2.00;;;21.80;93.50;;;;;;5043225;28;20267;-75
2021/08/19 07:39:54;;;;;;;1.50;1.40;;;22.00;92.80;;;;;;5047915;28;20479;-75
2021/08/19 07:42:20;;;;;;;1.43;1.33;;;22.00;90.00;;;;;;5044579;28;20222;-75
2021/08/19 07:44:45;;;;;;;1.60;1.50;;;22.30;88.30;;;;;;5047851;28;20191;-75
2021/08/19 07:47:11;;;;;;;1.83;1.60;;;22.40;82.10;;;;;;5048307;28;20183;-76
2021/08/19 07:49:36;;;;;;;1.57;1.47;;;22.40;83.00;;;;;;5046271;28;20186;-75
2021/08/19 07:52:02;;;;;;;1.43;1.33;;;22.60;81.70;;;;;;5045846;28;20204;-75
2021/08/19 07:54:27;;;;;;;1.70;1.60;;;22.60;81.00;;;;;;5046613;28;20209;-76
2021/08/19 07:56:53;;;;;;;1.70;1.60;;;23.10;79.80;;;;;;5051589;28;20187;-76
2021/08/19 07:59:18;;;;;;;1.67;1.57;;;23.20;77.70;;;;;;5046429;28;20209;-75
2021/08/19 08:01:44;;;;;;;1.53;1.43;;;23.60;75.80;;;;;;5049164;28;20205;-75
2021/08/19 08:04:10;;;;;;;2.43;2.30;;;23.60;71.70;;;;;;5047846;28;20684;-75
2021/08/19 08:06:36;;;;;;;2.70;2.60;;;24.00;71.90;;;;;;5047705;28;20677;-75
2021/08/19 08:09:03;;;;;;;2.20;2.00;;;24.30;71.80;;;;;;5044333;28;20308;-75
2021/08/19 08:11:29;;;;;;;1.70;1.60;;;24.40;71.10;;;;;;5048128;28;20481;-75
2021/08/19 08:13:55;;;;;;;1.27;1.27;;;24.60;69.00;;;;;;5059066;28;20431;-76
2021/08/19 08:16:20;;;;;;;1.67;1.57;;;24.90;65.90;;;;;;5048843;28;20789;-75
2021/08/19 08:18:46;;;;;;;1.40;1.30;;;25.30;63.60;;;;;;5045778;28;20185;-74
2021/08/19 08:21:14;;;;;;;1.73;1.63;;;25.20;64.00;;;;;;5047256;28;20205;-74
2021/08/19 08:23:41;;;;;;;1.60;1.50;;;25.40;63.30;;;;;;5050506;28;20552;-76
2021/08/19 08:26:08;;;;;;;1.77;1.67;;;25.70;62.50;;;;;;5050819;28;20425;-77
2021/08/19 08:28:36;;;;;;;1.60;1.50;;;25.60;61.00;;;;;;5043587;28;20477;-73
2021/08/19 08:31:03;;;;;;;1.70;1.60;;;25.50;59.90;;;;;;5047518;28;20465;-75
2021/08/19 08:33:31;;;;;;;1.60;1.50;;;25.60;58.80;;;;;;5057982;28;20450;-74
2021/08/19 08:35:58;;;;;;;3.63;1.83;;;25.40;58.90;;;;;;5046001;28;20945;-76
2021/08/19 08:38:25;;;;;;;1.73;1.63;;;25.30;58.40;;;;;;5043139;28;20449;-76
2021/08/19 08:40:52;;;;;;;1.70;1.60;;;25.30;58.70;;;;;;5048654;28;20463;-73
2021/08/19 08:43:20;;;;;;;1.97;1.67;;;25.20;59.40;;;;;;5045029;28;20425;-74
2021/08/19 08:45:48;;;;;;;2.33;2.13;;;25.20;58.10;;;;;;5046951;28;20745;-74
2021/08/19 08:48:16;;;;;;;1.90;1.73;;;25.40;57.90;;;;;;5046976;28;20421;-76
2021/08/19 08:50:46;;;;;;;1.70;1.60;;;25.40;58.80;;;;;;5047079;28;20432;-74
2021/08/19 08:53:13;;;;;;;2.13;2.00;;;25.10;58.40;;;;;;5041353;28;20814;-76
2021/08/19 08:55:39;;;;;;;3.33;1.60;;;24.70;58.70;;;;;;5048453;28;20460;-74
2021/08/19 08:58:05;;;;;;;1.60;1.50;;;24.60;59.10;;;;;;5048361;28;20443;-74
2021/08/19 09:00:30;;;;;;;1.83;1.73;;;24.10;59.60;;;;;;5047029;28;20477;-74
2021/08/19 09:02:56;;;;;;;1.80;1.70;;;24.30;60.50;;;;;;5046290;28;20453;-73
2021/08/19 09:05:27;;;;;;;1.60;1.50;;;24.00;60.00;;;;;;5044539;28;20436;-74
2021/08/19 09:07:58;;;;;;;2.00;1.90;;;24.20;60.40;;;;;;5046723;28;20194;-74
2021/08/19 09:10:34;;;;;;;1.17;1.10;;;24.50;61.00;;;;;;5041508;28;20472;-74
2021/08/19 09:13:06;;;;;;;1.70;1.60;;;24.80;59.20;;;;;;5044801;28;20818;-74
2021/08/19 09:15:32;;;;;;;1.40;1.30;;;25.60;57.10;;;;;;5052876;28;20432;-77
2021/08/19 09:18:00;;;;;;;1.53;1.43;;;25.70;55.40;;;;;;5048083;28;20436;-76
2021/08/19 09:20:40;;;;;;;2.07;1.50;;;26.10;54.80;;;;;;5047928;28;20210;-77
2021/08/19 09:23:11;;;;;;;1.53;1.43;;;26.50;54.10;;;;;;5049774;28;20862;-76
2021/08/19 09:25:42;;;;;;;1.70;1.60;;;26.60;52.70;;;;;;5048785;28;20431;-74
2021/08/19 09:28:27;;;;;;;1.70;1.60;;;26.20;52.70;;;;;;5045296;28;20508;-76
2021/08/19 09:31:07;;;;;;;1.70;1.30;;;26.30;53.30;;;;;;5042990;28;20434;-75
2021/08/19 09:33:36;;;;;;;1.40;1.40;;;26.10;53.70;;;;;;5038116;28;20481;-76
2021/08/19 09:36:06;;;;;;;1.40;1.30;;;26.00;54.60;;;;;;5046635;28;20431;-75
2021/08/19 09:38:43;;;;;;;1.63;1.50;;;25.40;54.70;;;;;;5054024;28;20439;-75
2021/08/19 09:41:10;;;;;;;1.80;1.70;;;25.20;56.00;;;;;;5034218;28;21037;-75
2021/08/19 09:43:40;;;;;;;1.50;1.40;;;25.10;56.80;;;;;;5044723;28;20430;-74
2021/08/19 09:46:06;;;;;;;2.03;1.77;;;24.80;57.60;;;;;;5046780;28;20440;-75
2021/08/19 09:48:32;;;;;;;1.93;1.67;;;24.70;58.40;;;;;;5049717;28;20499;-75
2021/08/19 09:51:11;;;;;;;1.53;1.43;;;25.10;58.60;;;;;;5047264;28;20424;-76
2021/08/19 09:54:09;;;;;;;2.93;1.73;;;25.60;58.40;;;;;;5045768;28;20694;-75
2021/08/19 09:56:37;;;;;;;1.73;1.63;;;25.50;54.50;;;;;;5025012;28;20473;-76
2021/08/19 09:59:19;;;;;;;2.07;1.30;;;25.60;54.50;;;;;;5040689;28;20449;-76
2021/08/19 10:01:49;;;;;;;1.50;1.20;;;25.60;53.80;;;;;;5045759;28;20764;-76
2021/08/19 10:04:15;;;;;;;2.90;1.50;;;25.90;54.60;;;;;;5045995;28;20426;-76
2021/08/19 10:06:41;;;;;;;1.57;1.47;;;26.30;55.20;;;;;;5043881;28;20439;-77
2021/08/19 10:09:07;;;;;;;1.60;1.50;;;27.00;53.50;;;;;;5039859;28;20787;-76
2021/08/19 10:11:33;;;;;;;1.23;1.13;;;27.30;51.70;;;;;;5045502;28;20433;-76
2021/08/19 10:14:01;;;;;;;1.20;1.10;;;27.70;52.20;;;;;;5044801;28;20198;-77
2021/08/19 10:16:30;;;;;;;1.50;1.20;;;28.10;50.90;;;;;;5045480;28;20425;-77
2021/08/19 10:19:00;;;;;;;1.20;1.13;;;28.40;49.60;;;;;;5044772;28;20442;-74
2021/08/19 10:21:28;;;;;;;1.50;1.40;;;28.70;47.30;;;;;;5043514;28;20799;-74
2021/08/19 10:23:54;;;;;;;1.17;1.00;;;29.00;46.30;;;;;;5047014;28;20429;-74
2021/08/19 10:26:20;;;;;;;1.00;1.00;;;29.10;45.90;;;;;;5043870;28;20426;-74
2021/08/19 10:28:52;;;;;;;1.53;1.43;;;29.10;45.10;;;;;;5045398;28;20481;-73
2021/08/19 10:31:41;;;;;;;1.00;1.00;;;29.50;45.00;;;;;;5036472;28;20487;-74
2021/08/19 10:34:07;;;;;;;1.33;1.23;;;30.60;44.70;;;;;;5041317;28;20456;-73
2021/08/19 10:36:42;;;;;;;1.40;1.27;;;31.30;41.50;;;;;;5043702;28;20442;-76
2021/08/19 10:39:26;;;;;;;1.30;1.20;;;31.00;40.80;;;;;;5048175;28;20506;-74
2021/08/19 10:41:56;;;;;;;1.30;1.20;;;30.40;41.20;;;;;;5041897;28;20433;-74
2021/08/19 10:44:36;;;;;;;1.43;1.33;;;29.90;42.30;;;;;;5035442;28;20945;-75
2021/08/19 10:47:02;;;;;;;1.00;1.00;;;29.40;43.70;;;;;;5048559;28;20470;-74
2021/08/19 10:49:36;;;;;;;1.20;1.20;;;28.90;44.40;;;;;;5046581;28;20425;-75
2021/08/19 10:52:08;;;;;;;1.20;1.00;;;28.70;44.90;;;;;;5044637;28;20505;-74
2021/08/19 10:54:40;;;;;;;1.60;1.13;;;28.40;44.60;;;;;;5042926;28;20431;-75
2021/08/19 10:57:30;;;;;;;1.23;1.20;;;28.20;45.20;;;;;;5039476;28;20522;-75
2021/08/19 10:59:59;;;;;;;1.30;1.20;;;28.60;46.70;;;;;;5043144;28;20483;-75
2021/08/19 11:02:44;;;;;;;1.50;1.10;;;28.90;45.00;;;;;;5042733;28;20444;-74
2021/08/19 11:05:12;;;;;;;1.30;1.20;;;29.30;45.40;;;;;;5045821;28;20432;-75
2021/08/19 11:07:46;;;;;;;1.13;1.00;;;29.70;45.00;;;;;;5043385;28;20509;-74
2021/08/19 11:10:17;;;;;;;0.80;0.80;;;30.10;43.70;;;;;;5046227;28;20555;-75
2021/08/19 11:12:43;;;;;;;1.17;1.10;;;30.80;41.20;;;;;;5046824;28;20436;-74
2021/08/19 11:15:10;;;;;;;1.33;1.10;;;31.10;41.00;;;;;;5049673;28;20945;-74
2021/08/19 11:17:36;;;;;;;1.03;1.03;;;31.40;40.80;;;;;;5037154;28;20197;-75
2021/08/19 11:20:23;;;;;;;0.80;0.80;;;31.40;39.20;;;;;;5044562;28;20824;-75
2021/08/19 11:23:01;;;;;;;1.30;1.20;;;31.30;39.30;;;;;;5038934;28;20551;-75
2021/08/19 11:25:27;;;;;;;1.10;1.10;;;31.60;40.10;;;;;;5039184;28;20800;-75
2021/08/19 11:27:54;;;;;;;1.20;1.10;;;32.80;37.90;;;;;;5044815;28;20461;-75
2021/08/19 11:30:34;;;;;;;1.03;0.93;;;33.50;36.60;;;;;;5042023;28;20457;-75
2021/08/19 11:33:15;;;;;;;1.00;1.00;;;34.00;36.80;;;;;;5045006;28;20978;-74
2021/08/19 11:35:42;;;;;;;1.23;1.00;;;34.20;35.60;;;;;;5042623;28;20479;-75
2021/08/19 11:38:16;;;;;;;2.43;1.00;;;34.20;34.70;;;;;;5044670;28;20511;-75
2021/08/19 11:40:45;;;;;;;0.90;0.90;;;33.90;33.60;;;;;;5050600;28;20581;-75
2021/08/19 11:43:29;;;;;;;1.40;1.30;;;33.10;33.40;;;;;;5055412;28;20425;-74
2021/08/19 11:46:08;;;;;;;1.20;1.00;;;32.40;36.30;;;;;;5041044;28;20428;-74
2021/08/19 11:48:36;;;;;;;1.20;1.10;;;32.10;37.50;;;;;;5046368;28;20436;-74
2021/08/19 11:51:04;;;;;;;1.20;1.10;;;31.90;38.10;;;;;;5048990;28;20428;-76
2021/08/19 11:53:30;;;;;;;1.50;1.40;;;31.80;38.50;;;;;;5048387;28;20432;-74
2021/08/19 11:56:09;;;;;;;1.10;1.00;;;31.50;36.90;;;;;;5048164;28;21061;-74
2021/08/19 11:58:34;;;;;;;1.43;1.33;;;31.10;37.10;;;;;;5047742;28;20193;-74
2021/08/19 12:01:11;;;;;;;1.33;1.20;;;30.70;38.40;;;;;;5046118;28;21002;-75
2021/08/19 12:03:39;;;;;;;1.50;1.40;;;30.40;39.10;;;;;;5044069;28;20180;-74
2021/08/19 12:06:19;;;;;;;1.13;1.03;;;30.10;39.80;;;;;;5049883;28;20436;-75
2021/08/19 12:08:47;;;;;;;2.60;1.10;;;30.00;40.80;;;;;;5049511;28;20806;-75
2021/08/19 12:11:15;;;;;;;1.03;1.03;;;29.80;41.00;;;;;;5047742;28;20451;-75
2021/08/19 12:13:41;;;;;;;1.47;1.30;;;29.80;41.50;;;;;;5047513;28;20433;-75
2021/08/19 12:16:09;;;;;;;1.30;1.20;;;29.80;41.20;;;;;;5057303;28;20992;-76
2021/08/19 12:18:34;;;;;;;1.93;1.27;;;29.90;42.20;;;;;;5046045;28;20442;-75
2021/08/19 12:21:13;;;;;;;1.40;1.30;;;30.00;41.60;;;;;;5047623;28;20472;-76
2021/08/19 12:23:39;;;;;;;1.50;1.40;;;30.20;40.70;;;;;;5037246;28;20678;-75
2021/08/19 12:26:13;;;;;;;1.70;1.20;;;30.50;40.50;;;;;;5047445;28;20432;-75
2021/08/19 12:28:39;;;;;;;2.40;1.43;;;30.90;40.40;;;;;;5039691;28;20519;-75
2021/08/19 12:31:09;;;;;;;0.90;0.90;;;31.60;39.00;;;;;;5047535;28;20455;-76
2021/08/19 12:33:38;;;;;;;1.47;1.37;;;32.20;38.20;;;;;;5045433;28;20502;-75
2021/08/19 12:36:15;;;;;;;1.37;1.30;;;32.50;38.30;;;;;;5047709;28;20421;-75
2021/08/19 12:38:41;;;;;;;1.40;1.30;;;32.20;36.40;;;;;;5048789;28;20527;-75
2021/08/19 12:41:25;;;;;;;1.00;1.00;;;31.80;37.30;;;;;;5047696;28;20465;-75
2021/08/19 12:44:09;;;;;;;1.47;1.37;;;31.30;37.30;;;;;;5045834;28;20837;-75
2021/08/19 12:46:43;;;;;;;1.30;1.20;;;30.90;38.10;;;;;;5045524;28;20449;-75
2021/08/19 12:49:26;;;;;;;1.77;1.67;;;30.60;38.70;;;;;;5047284;28;20443;-75
2021/08/19 12:52:13;;;;;;;1.83;1.73;;;30.40;40.30;;;;;;5037265;28;20462;-76